LJLJ/LJU METAR and TAF weather

Enter ICAO airport designator
Station Type Date Time Source
LJLJ METAR 2021/02/27 22:00 UTC NOAA

LJLJ 272200Z 15006KT 120V180 9999 FEW050 04/M01 Q1034 NOSIG


Station Type Date Time Source
LJLJ Decoded METAR 2021/02/27 22:00 UTC NOAA

Ljubljana / Brnik, Slovenia (LJLJ) 46-13N 014-29E 362M
Feb 27, 2021 - 05:00 PM EST / 2021.02.27 2200 UTC
Wind: from the SSE (150 degrees) at 7 MPH (6 KT) (direction variable):0
Visibility: greater than 7 mile(s):0
Sky conditions: mostly clear
Temperature: 39 F (4 C)
Dew Point: 30 F (-1 C)
Relative Humidity: 69%
Pressure (altimeter): 30.53 in. Hg (1034 hPa)
ob: LJLJ 272200Z 15006KT 120V180 9999 FEW050 04/M01 Q1034 NOSIG
cycle: 22

Station Type Date Time Source
LJLJ TAF 2021/02/27 18:06 UTC NOAA

TAF LJLJ 271700Z 2718/2818 12006KT 9999 FEW040 PROB40
TEMPO 2718/2806 12012KT

Example: see airport list